Time;durP1;ratioP1;P1;durP2;ratioP2;P2;SDS_P1;SDS_P2;PMS_P1;PMS_P2;Temp;Humidity;BMP_temperature;BMP_pressure;BME280_temperature;BME280_humidity;BME280_pressure;Samples;Min_cycle;Max_cycle;Signal;HPM_P1;HPM_P2
2023/08/13 00:02:13;;;;;;;12.13;1.83;;;;;;;15.45;100.00;100325.41;4974749;28;20027;-93
2023/08/13 00:04:38;;;;;;;11.57;1.65;;;;;;;15.44;100.00;100317.75;4974525;28;20038;-93
2023/08/13 00:07:04;;;;;;;6.38;1.48;;;;;;;15.39;100.00;100316.34;4974572;28;20105;-93
2023/08/13 00:09:29;;;;;;;9.30;2.42;;;;;;;15.32;100.00;100309.97;4974565;28;20482;-93
2023/08/13 00:11:54;;;;;;;9.23;1.75;;;;;;;15.31;100.00;100308.31;4974318;28;20356;-93
2023/08/13 00:14:20;;;;;;;8.88;1.50;;;;;;;15.39;100.00;100303.34;4974208;28;20500;-94
2023/08/13 00:16:47;;;;;;;9.73;1.50;;;;;;;15.35;100.00;100304.53;4989150;28;20033;-93
2023/08/13 00:19:13;;;;;;;3.97;1.20;;;;;;;15.32;100.00;100306.56;4973227;28;20030;-93
2023/08/13 00:21:38;;;;;;;8.00;1.35;;;;;;;15.29;100.00;100309.38;4973567;28;20034;-93
2023/08/13 00:24:04;;;;;;;4.90;1.45;;;;;;;15.30;100.00;100306.66;4972856;28;20026;-93
2023/08/13 00:26:29;;;;;;;4.68;1.30;;;;;;;15.49;100.00;100300.00;4973741;28;20378;-93
2023/08/13 00:28:55;;;;;;;2.45;0.75;;;;;;;15.45;100.00;100301.19;4974226;28;20113;-94
2023/08/13 00:31:20;;;;;;;16.10;1.73;;;;;;;15.45;100.00;100304.59;4974282;28;20389;-96
2023/08/13 00:33:46;;;;;;;10.43;1.98;;;;;;;15.51;100.00;100292.88;4974005;28;20031;-94
2023/08/13 00:36:11;;;;;;;7.22;1.33;;;;;;;15.41;100.00;100293.63;4973986;28;20031;-95
2023/08/13 00:38:36;;;;;;;12.52;1.60;;;;;;;15.46;100.00;100295.88;4989001;28;20070;-96
2023/08/13 00:41:02;;;;;;;9.27;1.20;;;;;;;15.39;100.00;100294.72;4973983;28;20027;-93
2023/08/13 00:43:27;;;;;;;3.60;1.30;;;;;;;15.40;100.00;100294.56;4972452;28;20031;-95
2023/08/13 00:45:53;;;;;;;5.15;1.50;;;;;;;15.38;100.00;100288.66;4973887;28;20026;-95
2023/08/13 00:48:18;;;;;;;6.90;1.50;;;;;;;15.33;100.00;100305.59;4988851;28;20049;-95
2023/08/13 00:50:45;;;;;;;9.27;1.60;;;;;;;15.36;100.00;100294.94;4973871;28;20139;-96
2023/08/13 00:53:11;;;;;;;6.60;1.58;;;;;;;15.38;100.00;100300.84;4973530;28;20070;-95
2023/08/13 00:55:37;;;;;;;5.15;1.20;;;;;;;15.38;100.00;100293.88;4988670;28;20066;-95
2023/08/13 00:58:03;;;;;;;6.35;1.40;;;;;;;15.35;100.00;100294.13;4973784;28;20035;-96
2023/08/13 01:00:30;;;;;;;7.18;1.75;;;;;;;15.35;100.00;100291.50;4973825;28;20023;-96
2023/08/13 01:02:56;;;;;;;9.98;1.58;;;;;;;15.31;100.00;100291.88;4972233;28;20093;-95
2023/08/13 01:05:32;;;;;;;6.70;1.27;;;;;;;15.32;100.00;100283.97;4972325;28;20473;-96
2023/08/13 01:08:20;;;;;;;8.20;1.30;;;;;;;15.31;100.00;100290.09;4973790;28;20079;-95
2023/08/13 01:10:54;;;;;;;6.13;1.75;;;;;;;15.32;100.00;100278.75;4973669;28;20105;-96
2023/08/13 01:13:33;;;;;;;6.53;1.60;;;;;;;15.31;100.00;100277.09;4972125;28;20035;-96
2023/08/13 01:15:59;;;;;;;11.32;1.67;;;;;;;15.29;100.00;100281.63;4988364;28;20026;-96
2023/08/13 01:18:26;;;;;;;3.90;1.15;;;;;;;15.25;100.00;100280.19;4972226;28;20023;-95
2023/08/13 01:20:51;;;;;;;6.85;1.40;;;;;;;15.39;100.00;100284.31;4973483;28;20030;-96
2023/08/13 01:23:17;;;;;;;7.18;1.25;;;;;;;15.29;100.00;100288.56;4972064;28;20555;-96
2023/08/13 01:25:49;;;;;;;8.82;1.95;;;;;;;15.27;100.00;100283.50;4973402;28;20027;-96
2023/08/13 01:28:34;;;;;;;6.75;1.50;;;;;;;15.29;100.00;100286.81;4973589;28;20038;-93
2023/08/13 01:31:11;;;;;;;4.38;1.17;;;;;;;15.25;100.00;100290.59;4971937;28;20023;-93
2023/08/13 01:33:41;;;;;;;7.53;2.05;;;;;;;15.33;100.00;100293.41;4972880;28;20029;-94
2023/08/13 01:36:07;;;;;;;4.53;1.02;;;;;;;15.26;100.00;100284.44;4973286;28;20485;-94
2023/08/13 01:38:34;;;;;;;9.13;3.05;;;;;;;15.20;100.00;100280.56;4973400;28;20030;-93
2023/08/13 01:41:04;;;;;;;9.50;1.52;;;;;;;15.34;100.00;100286.47;4972112;28;20453;-94
2023/08/13 01:43:29;;;;;;;5.90;1.83;;;;;;;15.33;100.00;100275.22;4971827;28;20034;-93
2023/08/13 01:45:56;;;;;;;7.40;2.28;;;;;;;15.33;100.00;100287.38;4971805;28;20130;-95
2023/08/13 01:48:21;;;;;;;10.07;1.88;;;;;;;15.34;100.00;100276.88;4988329;28;20477;-94
2023/08/13 01:50:47;;;;;;;4.00;1.40;;;;;;;15.30;100.00;100285.84;4971800;28;20027;-95
2023/08/13 01:53:12;;;;;;;7.45;1.80;;;;;;;15.43;100.00;100282.28;4973028;28;20033;-95
2023/08/13 01:55:37;;;;;;;13.02;2.38;;;;;;;15.31;100.00;100284.91;4972062;28;20393;-95
2023/08/13 01:58:03;;;;;;;11.90;1.58;;;;;;;15.42;100.00;100278.84;4973266;28;20072;-95
2023/08/13 02:00:29;;;;;;;8.05;2.03;;;;;;;15.41;100.00;100267.63;4971830;28;20038;-95
2023/08/13 02:02:55;;;;;;;6.15;1.55;;;;;;;15.42;100.00;100273.66;4972664;28;20432;-95
2023/08/13 02:05:20;;;;;;;7.20;1.52;;;;;;;15.32;100.00;100281.38;4973253;28;20023;-96
2023/08/13 02:07:46;;;;;;;8.40;1.85;;;;;;;15.30;100.00;100274.63;4972496;28;20027;-95
2023/08/13 02:10:12;;;;;;;6.72;1.52;;;;;;;15.34;100.00;100270.84;4974218;28;20073;-96
2023/08/13 02:12:38;;;;;;;12.20;1.70;;;;;;;15.27;100.00;100275.72;4959203;28;20333;-93
2023/08/13 02:15:04;;;;;;;9.35;2.10;;;;;;;15.29;100.00;100279.03;4972978;28;20039;-96
2023/08/13 02:17:29;;;;;;;6.75;1.60;;;;;;;15.26;100.00;100279.25;4989784;28;20485;-95
2023/08/13 02:19:54;;;;;;;7.25;1.40;;;;;;;15.33;100.00;100282.19;4987662;28;20041;-96
2023/08/13 02:22:20;;;;;;;4.13;1.35;;;;;;;15.36;100.00;100269.78;4972667;28;20109;-95
2023/08/13 02:24:45;;;;;;;12.48;1.40;;;;;;;15.43;100.00;100271.88;4972747;28;20461;-95
2023/08/13 02:27:11;;;;;;;6.35;1.75;;;;;;;15.38;100.00;100267.03;4971494;28;20061;-95
2023/08/13 02:29:36;;;;;;;8.30;2.00;;;;;;;15.37;100.00;100266.22;4971602;28;20030;-96
2023/08/13 02:32:01;;;;;;;8.93;1.83;;;;;;;15.39;100.00;100268.72;4963128;28;20050;-95
2023/08/13 02:34:36;;;;;;;5.80;1.33;;;;;;;15.34;100.00;100263.06;4971415;28;20512;-96
2023/08/13 02:37:01;;;;;;;8.07;2.28;;;;;;;15.34;100.00;100273.47;4971377;28;20023;-95
2023/08/13 02:39:26;;;;;;;7.85;1.38;;;;;;;15.28;100.00;100266.94;4967917;28;20035;-95
2023/08/13 02:41:52;;;;;;;5.63;1.42;;;;;;;15.29;100.00;100263.41;4972490;28;20035;-95
2023/08/13 02:44:17;;;;;;;12.80;1.40;;;;;;;15.25;100.00;100254.19;4972930;28;20493;-96
2023/08/13 02:46:43;;;;;;;8.00;1.80;;;;;;;15.24;100.00;100249.97;4974558;28;20105;-95
2023/08/13 02:49:08;;;;;;;8.98;1.15;;;;;;;15.26;100.00;100253.25;4971365;28;20381;-96
2023/08/13 02:51:34;;;;;;;8.80;1.30;;;;;;;15.42;100.00;100247.66;4975744;28;20482;-96
2023/08/13 02:53:59;;;;;;;5.45;1.08;;;;;;;15.29;100.00;100253.00;4974856;28;20034;-95
2023/08/13 02:56:24;;;;;;;6.85;1.60;;;;;;;15.25;100.00;100243.81;4976144;28;20363;-96
2023/08/13 02:58:50;;;;;;;7.65;1.27;;;;;;;15.25;100.00;100249.00;4974694;28;20023;-96
2023/08/13 03:01:15;;;;;;;4.68;1.10;;;;;;;15.37;100.00;100240.22;4990205;28;20037;-96
2023/08/13 03:03:41;;;;;;;12.50;2.92;;;;;;;15.31;100.00;100243.28;4990730;28;20027;-96
2023/08/13 03:06:06;;;;;;;5.93;1.40;;;;;;;15.44;100.00;100243.16;4974530;28;20027;-96
2023/08/13 03:08:31;;;;;;;6.70;1.30;;;;;;;15.34;100.00;100242.25;4990380;28;20038;-96
2023/08/13 03:10:57;;;;;;;9.70;1.30;;;;;;;15.34;100.00;100245.66;4990297;28;20058;-95
2023/08/13 03:13:22;;;;;;;8.07;1.63;;;;;;;15.22;100.00;100236.25;4974390;28;20023;-95
2023/08/13 03:15:47;;;;;;;6.07;1.45;;;;;;;15.20;100.00;100231.16;4989916;28;20026;-96
2023/08/13 03:18:13;;;;;;;7.50;1.42;;;;;;;15.19;100.00;100241.69;4975212;28;20495;-96
2023/08/13 03:20:38;;;;;;;5.85;1.35;;;;;;;15.22;100.00;100238.03;4975736;28;20437;-96
2023/08/13 03:23:04;;;;;;;8.13;1.58;;;;;;;15.21;100.00;100244.97;4974083;28;20022;-95
2023/08/13 03:25:30;;;;;;;9.27;1.08;;;;;;;15.17;100.00;100243.59;4970696;28;20070;-96
2023/08/13 03:27:55;;;;;;;9.93;1.85;;;;;;;15.16;100.00;100234.13;4961886;28;20031;-96
2023/08/13 03:30:20;;;;;;;11.65;1.95;;;;;;;15.17;100.00;100233.19;4989883;28;20424;-96
2023/08/13 03:32:46;;;;;;;4.75;1.20;;;;;;;15.25;100.00;100241.19;4974232;28;20058;-96
2023/08/13 03:35:11;;;;;;;3.03;0.95;;;;;;;15.40;100.00;100242.56;4973734;28;20404;-95
2023/08/13 03:37:36;;;;;;;5.88;1.83;;;;;;;15.23;100.00;100232.69;4974966;28;20023;-96
2023/08/13 03:40:02;;;;;;;3.45;1.08;;;;;;;15.25;100.00;100230.81;4973400;28;20026;-96
2023/08/13 03:42:27;;;;;;;6.97;1.35;;;;;;;15.16;100.00;100234.13;4975277;28;20397;-96
2023/08/13 03:44:53;;;;;;;5.68;1.40;;;;;;;15.18;100.00;100235.66;4965435;28;20024;-96
2023/08/13 03:47:18;;;;;;;12.35;1.50;;;;;;;15.20;100.00;100232.94;4968413;28;20046;-95
2023/08/13 03:49:44;;;;;;;6.28;1.75;;;;;;;15.16;100.00;100231.53;4959713;28;20106;-95
2023/08/13 03:52:12;;;;;;;4.72;1.38;;;;;;;15.20;100.00;100230.34;4974899;28;20019;-96
2023/08/13 03:54:37;;;;;;;12.25;1.83;;;;;;;15.12;100.00;100232.75;4975964;28;20030;-96
2023/08/13 03:57:03;;;;;;;4.85;1.48;;;;;;;15.24;100.00;100228.31;4975686;28;20106;-96
2023/08/13 03:59:28;;;;;;;6.05;1.50;;;;;;;15.18;100.00;100227.84;4972170;28;20469;-96
2023/08/13 04:01:53;;;;;;;8.82;1.48;;;;;;;15.13;100.00;100222.22;4975888;28;20027;-96
2023/08/13 04:04:19;;;;;;;6.38;1.63;;;;;;;15.17;100.00;100222.81;4973580;28;20030;-96
2023/08/13 04:06:45;;;;;;;8.00;1.35;;;;;;;15.24;100.00;100223.97;4990641;28;20031;-96
2023/08/13 04:09:10;;;;;;;5.43;1.60;;;;;;;15.19;100.00;100219.13;4973758;28;20054;-95
2023/08/13 04:11:36;;;;;;;5.78;1.20;;;;;;;15.08;100.00;100224.34;4973310;28;20497;-95
2023/08/13 04:14:01;;;;;;;6.88;2.05;;;;;;;15.05;100.00;100229.81;4974417;28;20034;-95
2023/08/13 04:16:27;;;;;;;6.18;1.23;;;;;;;15.07;100.00;100221.84;4972599;28;20057;-96
2023/08/13 04:18:52;;;;;;;6.72;1.60;;;;;;;15.26;100.00;100223.81;4973575;28;20077;-96
2023/08/13 04:21:18;;;;;;;6.80;2.30;;;;;;;15.21;100.00;100218.97;4972795;28;20023;-96
2023/08/13 04:23:43;;;;;;;7.30;1.40;;;;;;;15.15;100.00;100225.50;4973044;28;20034;-95
2023/08/13 04:26:08;;;;;;;6.03;1.50;;;;;;;15.34;100.00;100230.06;4972636;28;20451;-96
2023/08/13 04:28:34;;;;;;;7.97;1.50;;;;;;;15.30;100.00;100220.84;4972504;28;20465;-96
2023/08/13 04:30:59;;;;;;;5.07;1.40;;;;;;;15.27;100.00;100231.50;4989016;28;20554;-96
2023/08/13 04:33:25;;;;;;;6.20;1.52;;;;;;;15.23;100.00;100217.09;4972233;28;20094;-95
2023/08/13 04:35:54;;;;;;;6.63;1.58;;;;;;;15.17;100.00;100217.59;4973750;28;20034;-95
2023/08/13 04:38:20;;;;;;;5.78;1.90;;;;;;;15.13;100.00;100226.59;4972816;28;20127;-96
2023/08/13 04:40:47;;;;;;;5.88;1.23;;;;;;;15.09;100.00;100222.56;4973950;28;20429;-96
2023/08/13 04:43:13;;;;;;;8.82;1.73;;;;;;;15.04;100.00;100216.91;4973778;28;20033;-96
2023/08/13 04:45:38;;;;;;;8.43;1.75;;;;;;;15.04;100.00;100216.91;4972135;28;20026;-95
2023/08/13 04:48:04;;;;;;;10.85;2.38;;;;;;;15.07;100.00;100224.47;4988973;28;20113;-95
2023/08/13 04:50:29;;;;;;;5.05;1.45;;;;;;;15.13;100.00;100211.00;4988360;28;20535;-96
2023/08/13 04:52:55;;;;;;;6.13;1.20;;;;;;;15.01;100.00;100207.59;4972563;28;20497;-95
2023/08/13 04:55:20;;;;;;;8.70;2.60;;;;;;;15.06;100.00;100215.03;4972049;28;20389;-94
2023/08/13 04:57:46;;;;;;;8.40;1.80;;;;;;;15.01;100.00;100210.19;4988333;28;20023;-96
2023/08/13 05:00:12;;;;;;;7.35;1.58;;;;;;;14.99;100.00;100199.91;4972514;28;20030;-96
2023/08/13 05:02:37;;;;;;;8.45;1.70;;;;;;;14.99;100.00;100205.09;4972124;28;20027;-95
2023/08/13 05:05:03;;;;;;;5.25;1.50;;;;;;;14.98;100.00;100208.66;4973305;28;20093;-95
2023/08/13 05:07:29;;;;;;;4.93;1.33;;;;;;;15.04;100.00;100212.53;4988334;28;20031;-96
2023/08/13 05:09:54;;;;;;;3.90;1.33;;;;;;;15.03;100.00;100217.88;4973353;28;20030;-95
2023/08/13 05:12:19;;;;;;;10.57;1.73;;;;;;;15.03;100.00;100210.06;4973062;28;20057;-95
2023/08/13 05:14:45;;;;;;;8.60;2.42;;;;;;;15.08;100.00;100213.94;4972058;28;20421;-96
2023/08/13 05:17:20;;;;;;;8.90;1.80;;;;;;;15.09;100.00;100206.97;4972042;28;20110;-96
2023/08/13 05:19:47;;;;;;;7.78;1.27;;;;;;;15.23;100.00;100211.91;4972965;28;20114;-96
2023/08/13 05:22:12;;;;;;;6.72;1.17;;;;;;;15.18;100.00;100214.84;4988128;28;20396;-96
2023/08/13 05:24:38;;;;;;;8.18;1.65;;;;;;;15.23;100.00;100217.09;4980174;28;20027;-96
2023/08/13 05:27:03;;;;;;;4.95;1.30;;;;;;;15.22;100.00;100222.44;4989809;28;20130;-95
2023/08/13 05:29:29;;;;;;;11.77;2.22;;;;;;;15.25;100.00;100212.59;4980478;28;20359;-96
2023/08/13 05:31:54;;;;;;;5.65;1.50;;;;;;;15.17;100.00;100210.63;4971763;28;20058;-96
2023/08/13 05:34:20;;;;;;;6.53;1.25;;;;;;;15.20;100.00;100207.78;4971857;28;20331;-95
2023/08/13 05:36:45;;;;;;;7.20;1.27;;;;;;;15.28;100.00;100211.53;4972845;28;20113;-96
2023/08/13 05:39:11;;;;;;;6.97;1.02;;;;;;;15.32;100.00;100216.34;4972906;28;20027;-96
2023/08/13 05:41:36;;;;;;;8.98;1.45;;;;;;;15.35;100.00;100213.50;4971609;28;20045;-96
2023/08/13 05:44:02;;;;;;;3.92;1.00;;;;;;;15.36;100.00;100225.56;4972042;28;20544;-96
2023/08/13 05:46:28;;;;;;;4.90;1.20;;;;;;;15.38;100.00;100218.44;4971582;28;20054;-96
2023/08/13 05:48:53;;;;;;;5.68;1.40;;;;;;;15.41;100.00;100220.81;4972959;28;20035;-96
2023/08/13 05:51:18;;;;;;;9.35;1.45;;;;;;;15.35;100.00;100223.09;4971581;28;20441;-96
2023/08/13 05:53:44;;;;;;;9.73;1.65;;;;;;;15.36;100.00;100217.78;4973076;28;20478;-95
2023/08/13 05:56:09;;;;;;;5.68;1.05;;;;;;;15.46;100.00;100217.84;4971458;28;20031;-96
2023/08/13 05:58:34;;;;;;;7.78;1.10;;;;;;;15.46;100.00;100217.00;4971853;28;20034;-96
2023/08/13 06:01:00;;;;;;;4.47;1.08;;;;;;;15.49;100.00;100217.59;4971793;28;20058;-95
2023/08/13 06:03:25;;;;;;;4.95;1.30;;;;;;;15.47;100.00;100216.88;4987786;28;20089;-95
2023/08/13 06:05:51;;;;;;;3.33;0.82;;;;;;;15.53;100.00;100224.19;4971269;28;20031;-96
2023/08/13 06:08:16;;;;;;;3.25;0.80;;;;;;;15.54;100.00;100222.41;4971707;28;20027;-96
2023/08/13 06:10:41;;;;;;;4.72;1.08;;;;;;;15.55;100.00;100234.47;4987481;28;20098;-96
2023/08/13 06:13:07;;;;;;;3.33;0.88;;;;;;;15.50;100.00;100236.63;4971749;28;20039;-94
2023/08/13 06:15:32;;;;;;;3.55;1.27;;;;;;;15.57;100.00;100241.19;4972598;28;20385;-96
2023/08/13 06:17:57;;;;;;;4.13;1.30;;;;;;;15.58;100.00;100247.22;4972893;28;20030;-95
2023/08/13 06:20:23;;;;;;;7.60;1.10;;;;;;;15.57;100.00;100240.38;4973803;28;20023;-96
2023/08/13 06:22:49;;;;;;;6.32;1.00;;;;;;;15.67;100.00;100243.03;4976481;28;20536;-95
2023/08/13 06:25:14;;;;;;;5.78;1.20;;;;;;;15.63;100.00;100239.88;4975805;28;20030;-95
2023/08/13 06:27:40;;;;;;;6.07;0.90;;;;;;;15.61;100.00;100244.38;4976486;28;20026;-94
2023/08/13 06:30:06;;;;;;;5.07;0.70;;;;;;;15.64;100.00;100241.53;4976104;28;20117;-95
2023/08/13 06:32:31;;;;;;;5.25;1.55;;;;;;;15.75;100.00;100238.91;4977465;28;20026;-94
2023/08/13 06:34:56;;;;;;;3.65;0.73;;;;;;;15.81;100.00;100243.59;4975416;28;20109;-94
2023/08/13 06:37:22;;;;;;;6.13;1.05;;;;;;;15.91;100.00;100243.66;4975977;28;20038;-95
2023/08/13 06:39:47;;;;;;;3.03;0.88;;;;;;;15.97;100.00;100237.97;4990958;28;20054;-94
2023/08/13 06:42:13;;;;;;;2.47;0.82;;;;;;;16.03;100.00;100242.63;4975925;28;20121;-95
2023/08/13 06:44:38;;;;;;;2.90;0.60;;;;;;;16.00;100.00;100248.09;4974626;28;20041;-95
2023/08/13 06:47:04;;;;;;;7.57;0.82;;;;;;;15.84;100.00;100243.34;4976090;28;20022;-95
2023/08/13 06:49:29;;;;;;;4.93;1.50;;;;;;;15.75;100.00;100246.72;4975749;28;20031;-93
2023/08/13 06:51:55;;;;;;;6.65;1.10;;;;;;;15.80;100.00;100251.50;4975980;28;20027;-94
2023/08/13 06:54:20;;;;;;;4.18;1.10;;;;;;;15.84;100.00;100251.13;4976195;28;20023;-95
2023/08/13 06:56:46;;;;;;;12.32;1.48;;;;;;;15.81;100.00;100245.38;4974589;28;20050;-93
2023/08/13 06:59:11;;;;;;;3.78;0.80;;;;;;;15.91;100.00;100242.84;4975967;28;20054;-94
2023/08/13 07:01:37;;;;;;;4.35;0.95;;;;;;;15.92;100.00;100249.69;4975024;28;20826;-94
2023/08/13 07:04:03;;;;;;;3.97;0.98;;;;;;;16.00;100.00;100242.91;4973883;28;20082;-96
2023/08/13 07:06:29;;;;;;;4.07;0.90;;;;;;;16.10;100.00;100232.53;4974809;28;20039;-95
2023/08/13 07:08:55;;;;;;;2.35;0.47;;;;;;;15.95;100.00;100250.28;4975427;28;20031;-94
2023/08/13 07:11:20;;;;;;;3.45;1.00;;;;;;;16.09;100.00;100254.31;4976140;28;20027;-94
2023/08/13 07:13:48;;;;;;;6.15;1.17;;;;;;;16.29;100.00;100249.19;4974671;28;20461;-94
2023/08/13 07:16:15;;;;;;;4.15;0.80;;;;;;;16.27;100.00;100255.38;4973910;28;20105;-95
2023/08/13 07:18:42;;;;;;;3.67;1.58;;;;;;;16.29;100.00;100264.81;4972337;28;20019;-95
2023/08/13 07:21:08;;;;;;;3.65;1.02;;;;;;;16.22;100.00;100267.97;4972560;28;20102;-96
2023/08/13 07:23:35;;;;;;;3.38;0.63;;;;;;;16.24;100.00;100266.06;4979253;28;20015;-94
2023/08/13 07:26:00;;;;;;;3.10;0.70;;;;;;;16.28;100.00;100266.63;4973996;28;20110;-96
2023/08/13 07:28:25;;;;;;;4.93;1.00;;;;;;;16.33;100.00;100266.22;4974730;28;20169;-95
2023/08/13 07:30:51;;;;;;;4.75;0.85;;;;;;;16.21;100.00;100270.69;4989623;28;20026;-95
2023/08/13 07:33:17;;;;;;;4.55;1.40;;;;;;;16.07;100.00;100274.47;4974507;28;20062;-93
2023/08/13 07:35:42;;;;;;;1.92;0.65;;;;;;;16.21;100.00;100276.72;4973610;28;20172;-94
2023/08/13 07:38:07;;;;;;;3.17;0.75;;;;;;;16.21;100.00;100265.47;4976445;28;20031;-94
2023/08/13 07:40:34;;;;;;;3.75;0.90;;;;;;;16.29;100.00;100264.81;4993669;28;20029;-94
2023/08/13 07:43:00;;;;;;;4.78;1.00;;;;;;;16.09;100.00;100266.50;4978538;28;20110;-95
2023/08/13 07:45:25;;;;;;;3.85;0.68;;;;;;;16.09;100.00;100274.31;4973461;28;20034;-94
2023/08/13 07:47:51;;;;;;;6.38;1.73;;;;;;;16.05;100.00;100271.16;4974660;28;20031;-95
2023/08/13 07:50:16;;;;;;;4.10;0.80;;;;;;;16.09;100.00;100271.72;4974990;28;20382;-95
2023/08/13 07:52:42;;;;;;;2.67;0.60;;;;;;;15.98;100.00;100270.00;4974202;28;20037;-96
2023/08/13 07:55:08;;;;;;;4.25;0.80;;;;;;;16.20;100.00;100272.47;4970135;28;20077;-94
2023/08/13 07:57:33;;;;;;;3.20;1.17;;;;;;;16.27;100.00;100307.47;4972867;28;20033;-96
2023/08/13 07:59:59;;;;;;;3.55;0.60;;;;;;;16.15;100.00;100300.69;4972918;28;20023;-95
2023/08/13 08:02:24;;;;;;;2.83;0.50;;;;;;;15.90;100.00;100303.63;4987866;28;20088;-95
2023/08/13 08:04:50;;;;;;;3.00;0.60;;;;;;;15.90;100.00;100303.63;4975194;28;20070;-95
2023/08/13 08:07:18;;;;;;;3.42;0.50;;;;;;;15.74;100.00;100309.28;4973982;28;20034;-94
2023/08/13 08:09:44;;;;;;;2.70;0.43;;;;;;;15.59;100.00;100306.13;4972538;28;20134;-94
2023/08/13 08:12:09;;;;;;;4.45;1.13;;;;;;;15.54;100.00;100313.47;4971618;28;20462;-96
2023/08/13 08:14:35;;;;;;;4.13;0.63;;;;;;;15.51;100.00;100308.47;4976745;28;20027;-96
2023/08/13 08:17:05;;;;;;;3.70;1.00;;;;;;;15.59;100.00;100306.13;4978353;28;20146;-96
2023/08/13 08:19:31;;;;;;;6.93;1.30;;;;;;;15.55;100.00;100309.91;4993275;28;20023;-95
2023/08/13 08:21:58;;;;;;;5.78;0.90;;;;;;;15.43;100.00;100308.28;4975761;28;20477;-95
2023/08/13 08:24:24;;;;;;;4.88;0.75;;;;;;;15.34;100.00;100310.69;4972490;28;20082;-96
2023/08/13 08:26:50;;;;;;;4.47;0.63;;;;;;;15.29;100.00;100305.03;4974777;28;20111;-93
2023/08/13 08:29:15;;;;;;;6.32;1.00;;;;;;;15.45;100.00;100309.00;4972580;28;20141;-94
2023/08/13 08:31:40;;;;;;;5.07;0.82;;;;;;;15.52;100.00;100307.56;4988634;28;20023;-94
2023/08/13 08:34:06;;;;;;;6.40;1.38;;;;;;;15.47;100.00;100307.09;4976193;28;20030;-93
2023/08/13 08:36:31;;;;;;;5.70;1.00;;;;;;;15.48;100.00;100303.53;4973802;28;20457;-94
2023/08/13 08:38:57;;;;;;;3.50;0.63;;;;;;;15.50;100.00;100309.44;4971451;28;20426;-94
2023/08/13 08:41:22;;;;;;;4.90;0.70;;;;;;;15.54;100.00;100316.06;4972684;28;20102;-94
2023/08/13 08:43:48;;;;;;;6.82;1.27;;;;;;;15.38;100.00;100301.66;4987922;28;20045;-93
2023/08/13 08:46:15;;;;;;;6.88;0.80;;;;;;;15.37;100.00;100307.81;4973289;28;20031;-95
2023/08/13 08:48:41;;;;;;;7.88;0.93;;;;;;;15.54;100.00;100290.06;4974220;28;20058;-95
2023/08/13 08:51:07;;;;;;;7.65;1.80;;;;;;;15.40;100.00;100291.16;4972321;28;20059;-95
2023/08/13 08:53:34;;;;;;;4.32;1.38;;;;;;;15.45;100.00;100293.38;4974925;28;20035;-96
2023/08/13 08:56:00;;;;;;;3.72;0.93;;;;;;;15.44;100.00;100286.53;4989725;28;20061;-95
2023/08/13 08:58:25;;;;;;;2.28;0.80;;;;;;;15.75;100.00;100290.94;4972369;28;20034;-95
2023/08/13 09:00:56;;;;;;;5.38;0.80;;;;;;;15.79;100.00;100284.53;4974447;28;20066;-94
2023/08/13 09:03:22;;;;;;;5.05;1.40;;;;;;;15.95;100.00;100288.50;4973093;28;20034;-96
2023/08/13 09:05:48;;;;;;;6.32;0.88;;;;;;;15.98;100.00;100288.22;4972285;28;20057;-96
2023/08/13 09:08:14;;;;;;;4.65;0.85;;;;;;;16.11;100.00;100282.81;4976484;28;20421;-96
2023/08/13 09:10:46;;;;;;;8.68;0.65;;;;;;;16.29;100.00;100278.69;4971911;28;20030;-96
2023/08/13 09:13:11;;;;;;;2.53;0.50;;;;;;;16.52;100.00;100279.34;4978945;28;20113;-96
2023/08/13 09:15:49;;;;;;;2.53;0.63;;;;;;;16.96;100.00;100289.56;4983319;28;20178;-96
2023/08/13 09:18:15;;;;;;;4.10;0.47;;;;;;;17.50;100.00;100281.25;4972483;28;20073;-96
2023/08/13 09:20:46;;;;;;;4.28;0.70;;;;;;;18.07;100.00;100283.19;4987539;28;20495;-96
2023/08/13 09:23:32;;;;;;;1.92;0.60;;;;;;;18.71;99.42;100276.41;4973247;28;20041;-96
2023/08/13 09:26:07;;;;;;;3.40;0.60;;;;;;;19.52;96.59;100271.22;4976329;28;20512;-96
2023/08/13 09:28:33;;;;;;;3.28;0.63;;;;;;;20.13;89.91;100271.38;4974736;28;20081;-95
2023/08/13 09:30:58;;;;;;;3.92;0.90;;;;;;;19.86;88.82;100275.78;4971160;28;20105;-95
2023/08/13 09:33:24;;;;;;;2.42;0.50;;;;;;;20.19;87.01;100278.63;4970277;28;20053;-96
2023/08/13 09:35:49;;;;;;;4.95;0.80;;;;;;;20.57;81.22;100268.72;4971222;28;20460;-96
2023/08/13 09:38:15;;;;;;;6.85;0.70;;;;;;;20.89;75.12;100271.44;4969539;28;20019;-93
2023/08/13 09:40:45;;;;;;;4.10;0.50;;;;;;;21.44;76.79;100262.25;4969167;28;20490;-94
2023/08/13 09:43:15;;;;;;;4.70;1.02;;;;;;;21.30;72.65;100268.91;4970200;28;20026;-94
2023/08/13 09:45:43;;;;;;;6.35;1.02;;;;;;;21.15;74.29;100267.91;4970969;28;20039;-94
2023/08/13 09:48:11;;;;;;;4.68;0.52;;;;;;;21.17;75.50;100272.03;4992321;28;20038;-96
2023/08/13 09:50:41;;;;;;;4.47;1.30;;;;;;;20.59;75.15;100261.50;4986853;28;20035;-96
2023/08/13 09:53:12;;;;;;;13.95;0.80;;;;;;;20.67;74.34;100264.16;4970047;28;20041;-93
2023/08/13 09:55:44;;;;;;;;;;;;;;;20.93;74.54;100272.78;4972470;28;20039;-96
2023/08/13 09:58:12;;;;;;;4.32;0.65;;;;;;;20.27;70.14;100265.59;4967035;28;19929;-94
2023/08/13 10:00:38;;;;;;;3.38;0.70;;;;;;;20.39;71.85;100272.19;4989478;28;20031;-94
2023/08/13 10:03:18;;;;;;;3.13;0.70;;;;;;;20.24;72.37;100276.34;4977732;28;20037;-96
2023/08/13 10:05:45;;;;;;;5.03;0.65;;;;;;;20.06;73.09;100276.41;4972385;28;20031;-92
2023/08/13 10:08:11;;;;;;;4.90;0.90;;;;;;;20.28;73.15;100277.69;4971630;28;20106;-95
2023/08/13 10:10:50;;;;;;;5.78;1.00;;;;;;;20.92;72.09;100281.66;4981361;28;20051;-96
2023/08/13 10:13:15;;;;;;;4.72;0.95;;;;;;;20.50;68.77;100271.91;4984899;28;20037;-94
2023/08/13 10:15:43;;;;;;;6.47;0.75;;;;;;;20.85;70.55;100279.78;4991535;28;20031;-95
2023/08/13 10:18:10;;;;;;;4.43;1.00;;;;;;;20.59;69.64;100270.19;4978062;28;20038;-94
2023/08/13 10:20:45;;;;;;;5.60;0.85;;;;;;;20.68;72.92;100271.06;4995663;28;20419;-96
2023/08/13 10:23:16;;;;;;;8.93;1.00;;;;;;;20.17;69.36;100267.50;4982181;28;20030;-96
2023/08/13 10:25:44;;;;;;;4.35;0.80;;;;;;;19.92;70.95;100262.06;4974611;28;20019;-93
2023/08/13 10:28:24;;;;;;;3.35;0.52;;;;;;;20.25;72.57;100263.09;4976376;28;20023;-93
2023/08/13 10:30:49;;;;;;;4.18;0.57;;;;;;;20.46;72.26;100265.34;4973278;28;20401;-94
2023/08/13 10:33:15;;;;;;;2.83;0.57;;;;;;;20.84;70.62;100268.47;4973491;28;20050;-95
2023/08/13 10:35:42;;;;;;;3.88;0.90;;;;;;;21.29;68.20;100269.91;4974758;28;20477;-93
2023/08/13 10:38:08;;;;;;;6.47;0.82;;;;;;;21.28;67.63;100268.25;4974987;28;20089;-95
2023/08/13 10:40:35;;;;;;;5.32;0.60;;;;;;;21.44;68.80;100274.56;4976883;28;20473;-95
2023/08/13 10:43:02;;;;;;;3.90;0.95;;;;;;;21.33;68.48;100268.59;4976624;28;20026;-95
2023/08/13 10:45:35;;;;;;;4.18;0.60;;;;;;;21.69;66.53;100263.06;4976231;28;20492;-94
2023/08/13 10:48:09;;;;;;;8.85;1.00;;;;;;;22.06;64.76;100266.97;4974949;28;20054;-96
2023/08/13 10:50:44;;;;;;;3.38;0.80;;;;;;;23.01;61.74;100260.94;4990845;28;20030;-95
2023/08/13 10:53:10;;;;;;;2.33;0.57;;;;;;;22.74;63.50;100267.44;4986069;28;20389;-95
2023/08/13 10:55:41;;;;;;;2.75;0.50;;;;;;;23.10;60.93;100262.53;4990173;28;20119;-94
2023/08/13 10:58:08;;;;;;;3.20;0.70;;;;;;;22.73;61.64;100268.47;4973740;28;20035;-94
2023/08/13 11:00:43;;;;;;;2.78;0.65;;;;;;;22.11;61.82;100259.41;4973232;28;20383;-95
2023/08/13 11:03:23;;;;;;;1.90;0.43;;;;;;;22.17;65.43;100269.25;4990142;28;20459;-95
2023/08/13 11:05:51;;;;;;;4.80;0.60;;;;;;;22.25;64.85;100257.13;4990610;28;20030;-95
2023/08/13 11:08:17;;;;;;;1.50;0.30;;;;;;;22.68;62.39;100262.84;4991210;28;20050;-96
2023/08/13 11:10:46;;;;;;;2.97;0.65;;;;;;;22.62;59.21;100274.91;4975002;28;20074;-95
2023/08/13 11:13:12;;;;;;;3.97;0.65;;;;;;;22.88;58.32;100269.38;4991115;28;20034;-95
2023/08/13 11:15:38;;;;;;;1.95;0.30;;;;;;;23.20;56.98;100252.56;4991009;28;20027;-96
2023/08/13 11:18:03;;;;;;;3.42;0.70;;;;;;;22.90;57.15;100266.53;4975094;28;20470;-94